Time;durP1;ratioP1;P1;durP2;ratioP2;P2;SDS_P1;SDS_P2;PMS_P1;PMS_P2;Temp;Humidity;BMP_temperature;BMP_pressure;BME280_temperature;BME280_humidity;BME280_pressure;Samples;Min_cycle;Max_cycle;Signal;HPM_P1;HPM_P2
2023/12/18 00:00:54;;;;;;;24.92;13.35;;;1.60;99.90;;;;;;5020604;28;20036;-76
2023/12/18 00:03:22;;;;;;;25.27;12.70;;;1.60;99.90;;;;;;5017741;28;20037;-76
2023/12/18 00:05:51;;;;;;;21.55;12.52;;;1.60;99.90;;;;;;5014395;28;20101;-76
2023/12/18 00:08:19;;;;;;;25.92;13.88;;;1.60;99.90;;;;;;5005804;28;20034;-75
2023/12/18 00:10:45;;;;;;;23.88;12.50;;;1.50;99.90;;;;;;5004899;28;20084;-76
2023/12/18 00:13:10;;;;;;;25.30;12.35;;;1.50;99.90;;;;;;5006495;28;20508;-75
2023/12/18 00:15:39;;;;;;;23.48;12.40;;;1.50;99.90;;;;;;5008561;28;20026;-76
2023/12/18 00:18:04;;;;;;;25.65;11.80;;;1.50;99.90;;;;;;5014755;28;20045;-76
2023/12/18 00:20:33;;;;;;;26.30;12.30;;;1.40;99.90;;;;;;5014444;28;20485;-75
2023/12/18 00:22:58;;;;;;;20.55;11.77;;;1.40;99.90;;;;;;5011480;28;20409;-76
2023/12/18 00:25:24;;;;;;;23.02;11.40;;;1.40;99.90;;;;;;5011373;28;20030;-75
2023/12/18 00:27:50;;;;;;;25.60;11.63;;;1.40;99.90;;;;;;5008931;28;20096;-75
2023/12/18 00:30:16;;;;;;;20.65;12.35;;;1.30;99.90;;;;;;5010728;28;20038;-75
2023/12/18 00:32:44;;;;;;;20.92;12.93;;;1.30;99.90;;;;;;5007986;28;20394;-76
2023/12/18 00:35:19;;;;;;;19.63;11.57;;;1.30;99.90;;;;;;5012381;28;20032;-76
2023/12/18 00:37:44;;;;;;;22.98;13.32;;;1.30;99.90;;;;;;5009072;28;20038;-75
2023/12/18 00:40:13;;;;;;;21.70;11.68;;;1.30;99.90;;;;;;5011840;28;20156;-76
2023/12/18 00:42:38;;;;;;;20.85;11.27;;;1.30;99.90;;;;;;5009819;28;20026;-76
2023/12/18 00:45:05;;;;;;;23.15;11.57;;;1.30;99.90;;;;;;5011154;28;20047;-76
2023/12/18 00:47:31;;;;;;;19.45;11.02;;;1.30;99.90;;;;;;5016515;22;20046;-80
2023/12/18 00:49:56;;;;;;;23.13;11.68;;;1.30;99.90;;;;;;4992407;28;20065;-79
2023/12/18 00:52:22;;;;;;;21.08;11.55;;;1.30;99.90;;;;;;4995119;28;20094;-80
2023/12/18 00:54:48;;;;;;;20.20;11.00;;;1.30;99.90;;;;;;4956936;28;20476;-80
2023/12/18 00:57:13;;;;;;;18.55;10.02;;;1.30;99.90;;;;;;4970201;28;20898;-81
2023/12/18 00:59:39;;;;;;;20.30;11.20;;;1.30;99.90;;;;;;4971121;28;20026;-81
2023/12/18 01:02:04;;;;;;;18.10;10.32;;;1.30;99.90;;;;;;4973195;28;20030;-80
2023/12/18 01:04:30;;;;;;;18.63;9.13;;;1.30;99.90;;;;;;4972309;28;20038;-80
2023/12/18 01:06:55;;;;;;;15.65;9.25;;;1.30;99.90;;;;;;4970926;28;20113;-81
2023/12/18 01:09:21;;;;;;;18.33;10.90;;;1.30;99.90;;;;;;4970812;28;20031;-81
2023/12/18 01:11:47;;;;;;;17.35;9.80;;;1.30;99.90;;;;;;4970681;28;20038;-80
2023/12/18 01:14:12;;;;;;;16.02;9.55;;;1.20;99.90;;;;;;4974225;28;20038;-80
2023/12/18 01:16:38;;;;;;;18.23;10.27;;;1.20;99.90;;;;;;4966608;28;20408;-80
2023/12/18 01:19:04;;;;;;;17.98;10.05;;;1.20;99.90;;;;;;4967155;28;20034;-80
2023/12/18 01:21:29;;;;;;;18.25;9.52;;;1.20;99.90;;;;;;4972825;28;20184;-80
2023/12/18 01:23:55;;;;;;;15.65;8.95;;;1.20;99.90;;;;;;4971140;28;20030;-80
2023/12/18 01:26:20;;;;;;;14.52;9.27;;;1.20;99.90;;;;;;4974971;28;20030;-80
2023/12/18 01:28:46;;;;;;;15.88;8.68;;;1.10;99.90;;;;;;4972745;28;20069;-81
2023/12/18 01:31:24;;;;;;;15.75;8.43;;;1.10;99.90;;;;;;4974877;28;20094;-80
2023/12/18 01:33:52;;;;;;;14.85;7.72;;;1.10;99.90;;;;;;4971007;28;20049;-80
2023/12/18 01:36:18;;;;;;;15.35;8.05;;;1.10;99.90;;;;;;4970420;28;20476;-80
2023/12/18 01:38:45;;;;;;;14.85;8.18;;;1.10;99.90;;;;;;4972613;28;20031;-80
2023/12/18 01:41:10;;;;;;;17.73;8.55;;;1.10;99.90;;;;;;4974677;28;20484;-80
2023/12/18 01:43:36;;;;;;;16.77;8.60;;;1.10;99.90;;;;;;4971873;28;20058;-80
2023/12/18 01:46:03;;;;;;;16.15;7.95;;;1.10;99.90;;;;;;4975040;28;20396;-80
2023/12/18 01:48:29;;;;;;;12.65;7.30;;;1.10;99.90;;;;;;4971905;28;20056;-80
2023/12/18 01:50:57;;;;;;;13.20;7.35;;;1.10;99.90;;;;;;4974611;28;20142;-80
2023/12/18 01:53:34;;;;;;;16.50;7.97;;;1.10;99.90;;;;;;4969833;28;20035;-80
2023/12/18 01:56:02;;;;;;;15.57;8.35;;;1.10;99.90;;;;;;4975256;28;20061;-80
2023/12/18 01:58:31;;;;;;;14.90;8.18;;;1.10;99.90;;;;;;4971744;28;20050;-80
2023/12/18 02:00:58;;;;;;;13.98;7.28;;;1.10;99.90;;;;;;4974371;28;20026;-81
2023/12/18 02:03:25;;;;;;;12.55;6.45;;;1.10;99.90;;;;;;4969900;28;20031;-81
2023/12/18 02:05:50;;;;;;;13.27;7.63;;;1.00;99.90;;;;;;4973864;28;20038;-81
2023/12/18 02:08:16;;;;;;;14.98;7.93;;;1.10;99.90;;;;;;4954293;28;20065;-81
2023/12/18 02:10:43;;;;;;;17.83;7.82;;;1.00;99.90;;;;;;4975070;28;20101;-80
2023/12/18 02:13:08;;;;;;;10.82;6.68;;;1.00;99.90;;;;;;4951852;28;20059;-80
2023/12/18 02:15:34;;;;;;;13.35;7.25;;;1.00;99.90;;;;;;4972569;28;20045;-80
2023/12/18 02:17:59;;;;;;;17.15;7.65;;;1.00;99.90;;;;;;4971766;28;20795;-80
2023/12/18 02:20:25;;;;;;;11.57;6.85;;;1.00;99.90;;;;;;4972457;28;20035;-81
2023/12/18 02:22:51;;;;;;;11.18;6.60;;;0.90;99.90;;;;;;4952914;28;20375;-80
2023/12/18 02:25:18;;;;;;;12.02;6.32;;;1.00;99.90;;;;;;4971932;28;20034;-80
2023/12/18 02:27:45;;;;;;;11.40;6.35;;;1.00;99.90;;;;;;4953900;28;20027;-80
2023/12/18 02:30:19;;;;;;;12.65;6.35;;;0.90;99.90;;;;;;4972466;28;20550;-80
2023/12/18 02:32:45;;;;;;;11.55;6.57;;;1.00;99.90;;;;;;4970557;28;20058;-81
2023/12/18 02:35:11;;;;;;;10.65;6.35;;;1.00;99.90;;;;;;4968968;28;20023;-81
2023/12/18 02:37:37;;;;;;;15.85;7.15;;;1.00;99.90;;;;;;4968446;28;20435;-80
2023/12/18 02:40:03;;;;;;;10.15;5.90;;;1.00;99.90;;;;;;4967486;28;20117;-80
2023/12/18 02:42:28;;;;;;;9.55;6.15;;;1.00;99.90;;;;;;4969728;28;20027;-81
2023/12/18 02:44:54;;;;;;;9.07;5.75;;;0.90;99.90;;;;;;4964294;28;20076;-80
2023/12/18 02:47:20;;;;;;;10.52;5.68;;;0.90;99.90;;;;;;4971524;28;20161;-80
2023/12/18 02:49:45;;;;;;;13.02;6.70;;;0.90;99.90;;;;;;4971522;28;20030;-80
2023/12/18 02:52:11;;;;;;;12.35;6.20;;;0.90;99.90;;;;;;4954980;28;20058;-80
2023/12/18 02:54:37;;;;;;;13.60;8.35;;;0.90;99.90;;;;;;4969126;28;20058;-79
2023/12/18 02:57:03;;;;;;;18.98;8.27;;;0.90;99.90;;;;;;4967862;28;20061;-79
2023/12/18 02:59:28;;;;;;;14.32;7.90;;;0.90;99.90;;;;;;4972187;28;20113;-79
2023/12/18 03:01:54;;;;;;;13.93;7.55;;;0.90;99.90;;;;;;4969333;28;20099;-79
2023/12/18 03:04:20;;;;;;;14.02;7.00;;;0.90;99.90;;;;;;4964760;28;20035;-79
2023/12/18 03:06:48;;;;;;;13.13;8.00;;;0.90;99.90;;;;;;4968833;28;20031;-80
2023/12/18 03:09:14;;;;;;;14.35;6.82;;;0.90;99.90;;;;;;4969457;28;20042;-79
2023/12/18 03:11:41;;;;;;;10.43;6.47;;;0.80;99.90;;;;;;4968778;28;20031;-79
2023/12/18 03:14:07;;;;;;;11.90;6.82;;;0.80;99.90;;;;;;4964838;28;20030;-79
2023/12/18 03:16:33;;;;;;;12.50;6.55;;;0.80;99.90;;;;;;4966375;28;20030;-80
2023/12/18 03:18:59;;;;;;;11.25;6.57;;;0.80;99.90;;;;;;4966263;28;20113;-79
2023/12/18 03:21:24;;;;;;;12.95;6.43;;;0.70;99.90;;;;;;4972134;28;20038;-80
2023/12/18 03:23:50;;;;;;;13.18;7.20;;;0.70;99.90;;;;;;4965737;28;20049;-79
2023/12/18 03:26:16;;;;;;;11.45;6.80;;;0.70;99.90;;;;;;4969280;28;20128;-79
2023/12/18 03:28:42;;;;;;;15.57;7.43;;;0.70;99.90;;;;;;4969555;28;20127;-79
2023/12/18 03:31:10;;;;;;;11.18;6.28;;;0.60;99.90;;;;;;4970271;28;20070;-80
2023/12/18 03:33:36;;;;;;;12.73;7.70;;;0.60;99.90;;;;;;4968665;28;20039;-79
2023/12/18 03:36:02;;;;;;;12.30;6.63;;;0.60;99.90;;;;;;4975383;28;20055;-80
2023/12/18 03:38:28;;;;;;;12.43;7.20;;;0.60;99.90;;;;;;4990539;28;20035;-80
2023/12/18 03:40:53;;;;;;;15.88;7.18;;;0.60;99.90;;;;;;4993535;28;20037;-79
2023/12/18 03:43:19;;;;;;;13.07;7.18;;;0.60;99.90;;;;;;4993635;28;20045;-80
2023/12/18 03:45:44;;;;;;;13.65;6.93;;;0.60;99.90;;;;;;4995648;28;20014;-80
2023/12/18 03:48:10;;;;;;;14.63;6.90;;;0.60;99.90;;;;;;4988881;28;20047;-80
2023/12/18 03:50:36;;;;;;;14.43;7.43;;;0.60;99.90;;;;;;4996280;28;20043;-80
2023/12/18 03:53:01;;;;;;;10.93;6.55;;;0.60;99.90;;;;;;4993827;28;20038;-80
2023/12/18 03:55:27;;;;;;;11.80;6.78;;;0.60;99.90;;;;;;4996487;28;20082;-81
2023/12/18 03:57:53;;;;;;;13.32;6.45;;;0.60;99.90;;;;;;4991226;28;20491;-81
2023/12/18 04:00:20;;;;;;;11.05;6.18;;;0.70;99.90;;;;;;4975909;28;20016;-80
2023/12/18 04:02:45;;;;;;;18.63;7.43;;;0.70;99.90;;;;;;4975018;28;20094;-81
2023/12/18 04:05:11;;;;;;;12.52;6.13;;;0.70;99.90;;;;;;4970420;28;20077;-80
2023/12/18 04:07:36;;;;;;;9.93;5.80;;;0.70;99.90;;;;;;4972069;28;20122;-80
2023/12/18 04:10:02;;;;;;;11.50;6.35;;;0.60;99.90;;;;;;4976772;28;20058;-80
2023/12/18 04:12:28;;;;;;;10.73;5.10;;;0.60;99.90;;;;;;4975327;28;20042;-80
2023/12/18 04:14:53;;;;;;;10.90;6.13;;;0.60;99.90;;;;;;4967856;28;20023;-81
2023/12/18 04:17:19;;;;;;;10.23;5.65;;;0.60;99.90;;;;;;4973451;28;20558;-81
2023/12/18 04:19:44;;;;;;;10.13;5.65;;;0.60;99.90;;;;;;4974146;28;20031;-80
2023/12/18 04:22:10;;;;;;;9.80;5.20;;;0.50;99.90;;;;;;4956863;28;20039;-80
2023/12/18 04:24:36;;;;;;;12.52;5.55;;;0.50;99.90;;;;;;4966782;28;20399;-81
2023/12/18 04:27:01;;;;;;;10.18;5.10;;;0.50;99.90;;;;;;4971554;28;20081;-81
2023/12/18 04:29:27;;;;;;;11.93;5.80;;;0.50;99.90;;;;;;4974525;28;20102;-81
2023/12/18 04:31:53;;;;;;;9.77;4.90;;;0.50;99.90;;;;;;4971354;28;20031;-81
2023/12/18 04:34:19;;;;;;;8.80;5.22;;;0.50;99.90;;;;;;4968627;28;20070;-81
2023/12/18 04:36:45;;;;;;;8.55;5.05;;;0.40;99.90;;;;;;4970868;28;20034;-81
2023/12/18 04:39:11;;;;;;;9.75;4.85;;;0.50;99.90;;;;;;4971211;28;20034;-81
2023/12/18 04:41:36;;;;;;;9.85;5.15;;;0.50;99.90;;;;;;4970851;28;20078;-81
2023/12/18 04:44:02;;;;;;;12.07;4.80;;;0.50;99.90;;;;;;4972236;28;20423;-81
2023/12/18 04:46:34;;;;;;;11.82;6.10;;;0.50;99.90;;;;;;4973592;28;20046;-82
2023/12/18 04:49:00;;;;;;;18.35;7.30;;;0.50;99.90;;;;;;4974996;28;20031;-82
2023/12/18 04:51:25;;;;;;;8.43;4.53;;;0.50;99.90;;;;;;4970109;28;20428;-82
2023/12/18 04:53:51;;;;;;;9.05;4.28;;;0.50;99.90;;;;;;4968507;28;20054;-82
2023/12/18 04:56:16;;;;;;;10.48;5.18;;;0.50;99.90;;;;;;4974461;28;20041;-82
2023/12/18 04:58:44;;;;;;;12.23;6.00;;;0.50;99.90;;;;;;4978128;28;20054;-81
2023/12/18 05:01:10;;;;;;;9.40;5.05;;;0.50;99.90;;;;;;4975358;28;20462;-81
2023/12/18 05:03:36;;;;;;;6.72;4.68;;;0.50;99.90;;;;;;4974293;28;20069;-81
2023/12/18 05:06:02;;;;;;;9.93;4.88;;;0.50;99.90;;;;;;4974156;28;20484;-81
2023/12/18 05:08:28;;;;;;;9.10;4.95;;;0.50;99.90;;;;;;4974412;28;20082;-81
2023/12/18 05:10:54;;;;;;;9.55;4.88;;;0.50;99.90;;;;;;4976907;28;20114;-81
2023/12/18 05:13:20;;;;;;;10.30;5.28;;;0.50;99.90;;;;;;4973613;28;20114;-81
2023/12/18 05:15:46;;;;;;;11.98;5.65;;;0.50;99.90;;;;;;4973432;28;20051;-81
2023/12/18 05:18:12;;;;;;;10.77;6.07;;;0.50;99.90;;;;;;4973981;28;20066;-81
2023/12/18 05:20:37;;;;;;;9.85;5.68;;;0.50;99.90;;;;;;4957851;28;20038;-82
2023/12/18 05:23:03;;;;;;;11.52;5.35;;;0.50;99.90;;;;;;4960552;28;20474;-82
2023/12/18 05:25:29;;;;;;;10.18;5.13;;;0.50;99.90;;;;;;4958711;28;20069;-81
2023/12/18 05:27:55;;;;;;;10.55;6.22;;;0.50;99.90;;;;;;4975405;28;20027;-81
2023/12/18 05:30:20;;;;;;;10.52;5.63;;;0.50;99.90;;;;;;4954895;28;20019;-82
2023/12/18 05:32:46;;;;;;;12.15;6.20;;;0.50;99.90;;;;;;4975796;28;20037;-83
2023/12/18 05:35:12;;;;;;;13.55;7.38;;;0.50;99.90;;;;;;4957468;28;20031;-82
2023/12/18 05:37:37;;;;;;;12.82;6.70;;;0.50;99.90;;;;;;4975265;28;20117;-81
2023/12/18 05:40:03;;;;;;;12.82;7.15;;;0.50;99.90;;;;;;4977918;28;20030;-81
2023/12/18 05:42:29;;;;;;;11.45;6.63;;;0.50;99.90;;;;;;4963202;28;20037;-81
2023/12/18 05:44:55;;;;;;;12.75;6.80;;;0.50;99.90;;;;;;4973405;28;20105;-83
2023/12/18 05:47:20;;;;;;;19.83;7.55;;;0.50;99.90;;;;;;4959822;28;20027;-82
2023/12/18 05:49:46;;;;;;;17.95;7.63;;;0.50;99.90;;;;;;4970614;28;20065;-82
2023/12/18 05:52:11;;;;;;;12.10;6.72;;;0.40;99.90;;;;;;4975675;28;20031;-84
2023/12/18 05:54:37;;;;;;;10.50;7.18;;;0.40;99.90;;;;;;4972874;28;20035;-83
2023/12/18 05:57:03;;;;;;;14.02;6.85;;;0.40;99.90;;;;;;4977380;28;20045;-83
2023/12/18 05:59:29;;;;;;;13.70;7.28;;;0.40;99.90;;;;;;4978506;28;20034;-82
2023/12/18 06:01:55;;;;;;;12.40;7.00;;;0.40;99.90;;;;;;4956351;28;20032;-81
2023/12/18 06:04:21;;;;;;;14.57;7.63;;;0.40;99.90;;;;;;4973063;28;20023;-82
2023/12/18 06:06:47;;;;;;;16.90;8.00;;;0.40;99.90;;;;;;4953751;28;20050;-82
2023/12/18 06:09:13;;;;;;;14.13;7.22;;;0.40;99.90;;;;;;4971086;28;20030;-81
2023/12/18 06:11:39;;;;;;;17.70;8.07;;;0.50;99.90;;;;;;4958491;28;20510;-83
2023/12/18 06:14:04;;;;;;;22.15;7.03;;;0.40;99.90;;;;;;4955323;28;20035;-82
2023/12/18 06:16:30;;;;;;;13.57;6.75;;;0.50;99.90;;;;;;4973299;28;20483;-81
2023/12/18 06:18:55;;;;;;;12.77;6.15;;;0.50;99.90;;;;;;4977726;28;20042;-83
2023/12/18 06:21:21;;;;;;;10.30;5.78;;;0.50;99.90;;;;;;4972910;28;20026;-81
2023/12/18 06:23:47;;;;;;;9.13;4.80;;;0.50;99.90;;;;;;4971099;28;20110;-81
2023/12/18 06:26:12;;;;;;;13.07;4.78;;;0.60;99.90;;;;;;4970043;28;20123;-82
2023/12/18 06:28:38;;;;;;;9.43;5.38;;;0.60;99.90;;;;;;4975771;28;20450;-81
2023/12/18 06:31:03;;;;;;;8.85;5.68;;;0.60;99.90;;;;;;4974759;28;20035;-83
2023/12/18 06:33:29;;;;;;;8.52;4.97;;;0.60;99.90;;;;;;4975423;28;20031;-82
2023/12/18 06:35:55;;;;;;;11.50;5.35;;;0.70;99.90;;;;;;4956577;28;20095;-82
2023/12/18 06:38:20;;;;;;;7.93;5.05;;;0.70;99.90;;;;;;4971976;28;20492;-83
2023/12/18 06:40:46;;;;;;;11.10;5.85;;;0.70;99.90;;;;;;4976577;28;20112;-82
2023/12/18 06:43:11;;;;;;;11.93;6.18;;;0.70;99.90;;;;;;4974714;28;20027;-82
2023/12/18 06:45:37;;;;;;;13.18;6.88;;;0.70;99.90;;;;;;4977315;28;20026;-82
2023/12/18 06:48:03;;;;;;;11.70;6.15;;;0.70;99.90;;;;;;4952985;28;20031;-82
2023/12/18 06:50:29;;;;;;;14.50;6.90;;;0.80;99.90;;;;;;4972207;28;20018;-82
2023/12/18 06:52:55;;;;;;;11.07;6.35;;;0.80;99.90;;;;;;4970858;28;20026;-82
2023/12/18 06:55:21;;;;;;;14.43;6.47;;;0.80;99.90;;;;;;4970851;28;20031;-82
2023/12/18 06:57:46;;;;;;;14.13;6.68;;;0.80;99.90;;;;;;4975335;28;20034;-83
2023/12/18 07:00:13;;;;;;;12.13;7.22;;;0.80;99.90;;;;;;4976211;28;20086;-83
2023/12/18 07:02:38;;;;;;;15.88;8.18;;;0.80;99.90;;;;;;4971126;28;20062;-82
2023/12/18 07:05:04;;;;;;;14.40;7.95;;;0.90;99.90;;;;;;4955983;28;20085;-82
2023/12/18 07:07:30;;;;;;;12.95;6.90;;;0.90;99.90;;;;;;4958444;28;20933;-82
2023/12/18 07:09:55;;;;;;;16.38;7.50;;;0.90;99.90;;;;;;4976818;28;20030;-82
2023/12/18 07:12:21;;;;;;;12.10;6.22;;;0.80;99.90;;;;;;4972970;28;20031;-82
2023/12/18 07:14:47;;;;;;;11.15;5.68;;;0.80;99.90;;;;;;4957298;28;20027;-81
2023/12/18 07:17:13;;;;;;;11.95;6.38;;;0.80;99.90;;;;;;4974082;28;20031;-81
2023/12/18 07:19:42;;;;;;;13.40;6.43;;;0.80;99.90;;;;;;4976408;28;20407;-81
2023/12/18 07:22:07;;;;;;;14.73;7.13;;;0.70;99.90;;;;;;4973137;28;20039;-81
2023/12/18 07:24:33;;;;;;;15.93;7.15;;;0.70;99.90;;;;;;4969880;28;20040;-82
2023/12/18 07:26:59;;;;;;;14.05;6.65;;;0.70;99.90;;;;;;4958166;28;20746;-82
2023/12/18 07:29:25;;;;;;;12.95;6.78;;;0.60;99.90;;;;;;4974860;28;20018;-81
2023/12/18 07:31:50;;;;;;;16.27;7.15;;;0.60;99.90;;;;;;4957040;28;20091;-81
2023/12/18 07:34:16;;;;;;;16.77;8.50;;;0.60;99.90;;;;;;4970542;28;20042;-81
2023/12/18 07:36:42;;;;;;;13.60;7.05;;;0.60;99.90;;;;;;4972803;28;20058;-81
2023/12/18 07:39:08;;;;;;;15.18;7.85;;;0.60;99.90;;;;;;4957389;28;20039;-82
2023/12/18 07:41:34;;;;;;;13.38;6.95;;;0.60;99.90;;;;;;4971857;28;20035;-80
2023/12/18 07:44:00;;;;;;;14.05;6.95;;;0.60;99.90;;;;;;4954823;28;20034;-80
2023/12/18 07:46:26;;;;;;;13.27;7.03;;;0.60;99.90;;;;;;4972222;28;20035;-81
2023/12/18 07:48:53;;;;;;;11.90;6.30;;;0.60;99.90;;;;;;4968541;28;20031;-83
2023/12/18 07:51:19;;;;;;;11.68;5.82;;;0.60;99.90;;;;;;4976416;28;20026;-82
2023/12/18 07:53:44;;;;;;;10.38;5.82;;;0.60;99.90;;;;;;4974540;28;20046;-82
2023/12/18 07:56:10;;;;;;;12.52;6.10;;;0.60;99.90;;;;;;4970483;28;20034;-82
2023/12/18 07:58:36;;;;;;;9.52;6.43;;;0.70;99.90;;;;;;4956374;28;20035;-82
2023/12/18 08:01:03;;;;;;;11.75;6.70;;;0.70;99.90;;;;;;4974436;28;20062;-82
2023/12/18 08:03:29;;;;;;;10.48;6.38;;;0.70;99.90;;;;;;4952853;28;20046;-81
2023/12/18 08:05:55;;;;;;;13.38;7.43;;;0.70;99.90;;;;;;4971308;28;20026;-81
2023/12/18 08:08:20;;;;;;;15.48;7.45;;;0.70;99.90;;;;;;4974271;28;20070;-82
2023/12/18 08:10:46;;;;;;;13.60;7.10;;;0.80;99.90;;;;;;4970384;28;20380;-83
2023/12/18 08:13:12;;;;;;;13.75;7.05;;;0.80;99.90;;;;;;4973024;28;20031;-82
2023/12/18 08:15:37;;;;;;;12.95;7.10;;;0.80;99.90;;;;;;4973063;28;20026;-83
2023/12/18 08:18:03;;;;;;;12.88;7.00;;;0.90;99.90;;;;;;4956274;28;20023;-83
2023/12/18 08:20:29;;;;;;;11.25;6.00;;;0.90;99.90;;;;;;4957641;28;20081;-83
2023/12/18 08:22:54;;;;;;;10.25;5.88;;;0.90;99.90;;;;;;4953584;28;20108;-82
2023/12/18 08:25:24;;;;;;;13.38;6.55;;;1.00;99.90;;;;;;4973218;28;20034;-82
2023/12/18 08:27:50;;;;;;;12.20;6.13;;;1.00;99.90;;;;;;4973110;28;20030;-83
2023/12/18 08:30:15;;;;;;;13.82;7.40;;;1.00;99.90;;;;;;4971363;28;20035;-83
2023/12/18 08:32:41;;;;;;;13.80;6.72;;;1.00;99.90;;;;;;4960842;28;20023;-82
2023/12/18 08:35:07;;;;;;;14.18;6.72;;;1.10;99.90;;;;;;4976553;28;20062;-82
2023/12/18 08:37:33;;;;;;;11.35;6.70;;;1.10;99.90;;;;;;4978251;28;20034;-81
2023/12/18 08:40:03;;;;;;;9.73;5.30;;;1.20;99.90;;;;;;4978816;28;20504;-80
2023/12/18 08:42:29;;;;;;;13.20;6.85;;;1.20;99.90;;;;;;4961212;28;20027;-81
2023/12/18 08:44:54;;;;;;;10.57;5.90;;;1.20;99.90;;;;;;4976177;28;20062;-82
2023/12/18 08:47:20;;;;;;;10.75;5.53;;;1.30;99.90;;;;;;4974157;28;20027;-81
2023/12/18 08:49:45;;;;;;;14.23;6.93;;;1.30;99.90;;;;;;4974906;28;20121;-81
2023/12/18 08:52:11;;;;;;;12.68;6.18;;;1.40;99.90;;;;;;4976963;28;20018;-81
2023/12/18 08:54:36;;;;;;;14.25;6.07;;;1.40;99.90;;;;;;4975083;28;20042;-83
2023/12/18 08:57:02;;;;;;;9.63;6.00;;;1.50;99.90;;;;;;4958840;28;20037;-82
2023/12/18 08:59:28;;;;;;;11.50;5.82;;;1.50;99.90;;;;;;4975540;28;20023;-82
2023/12/18 09:01:53;;;;;;;12.45;6.25;;;1.50;99.90;;;;;;4977121;28;20023;-81
2023/12/18 09:04:19;;;;;;;10.73;6.22;;;1.60;99.90;;;;;;4976783;28;20027;-82
2023/12/18 09:06:45;;;;;;;10.57;6.05;;;1.60;99.90;;;;;;4978072;28;20034;-81
2023/12/18 09:09:11;;;;;;;12.20;6.50;;;1.60;99.90;;;;;;4978018;28;20095;-81
2023/12/18 09:11:37;;;;;;;12.25;6.47;;;1.70;99.90;;;;;;4974666;28;20054;-80
2023/12/18 09:14:05;;;;;;;12.27;6.53;;;1.70;99.90;;;;;;4978381;28;20125;-82
2023/12/18 09:16:31;;;;;;;13.27;7.93;;;1.70;99.90;;;;;;4976339;28;20499;-82
2023/12/18 09:18:57;;;;;;;14.80;8.40;;;1.80;99.90;;;;;;4962020;28;20045;-81
2023/12/18 09:21:22;;;;;;;12.80;7.88;;;1.80;99.90;;;;;;4977890;28;20479;-82
2023/12/18 09:23:49;;;;;;;16.98;7.10;;;1.90;99.90;;;;;;4961235;28;20038;-81
2023/12/18 09:26:15;;;;;;;14.00;6.55;;;2.00;99.90;;;;;;4975959;28;20023;-82
2023/12/18 09:28:42;;;;;;;16.00;6.63;;;2.00;99.90;;;;;;4971850;28;20019;-81
2023/12/18 09:31:07;;;;;;;14.50;6.82;;;2.10;99.90;;;;;;4979360;28;20034;-81
2023/12/18 09:33:33;;;;;;;12.43;6.97;;;2.20;99.90;;;;;;4956847;28;20035;-82
2023/12/18 09:36:02;;;;;;;12.70;6.57;;;2.20;99.90;;;;;;4975233;28;20042;-82
2023/12/18 09:38:28;;;;;;;14.25;7.57;;;2.30;99.90;;;;;;4973730;28;20027;-82
2023/12/18 09:40:53;;;;;;;19.00;7.82;;;2.40;99.90;;;;;;4975847;28;20507;-81
2023/12/18 09:43:20;;;;;;;12.23;7.53;;;2.50;99.90;;;;;;4974312;28;20034;-81
2023/12/18 09:45:47;;;;;;;14.95;7.18;;;2.60;99.90;;;;;;4968943;28;20019;-82
2023/12/18 09:48:14;;;;;;;14.43;7.22;;;2.60;99.90;;;;;;4977232;28;20042;-82
2023/12/18 09:50:40;;;;;;;16.70;7.88;;;2.70;99.90;;;;;;4972580;28;21026;-82
2023/12/18 09:53:10;;;;;;;17.48;6.90;;;2.80;99.90;;;;;;4974323;28;20035;-82
2023/12/18 09:55:36;;;;;;;13.27;6.70;;;2.80;99.90;;;;;;4976504;28;20403;-82
2023/12/18 09:58:02;;;;;;;16.08;7.85;;;2.90;99.90;;;;;;4976430;28;20092;-82
2023/12/18 10:00:28;;;;;;;14.25;6.53;;;2.90;99.90;;;;;;4973559;28;20045;-82
2023/12/18 10:02:58;;;;;;;11.52;6.70;;;3.00;99.90;;;;;;4971764;28;20125;-82
2023/12/18 10:05:25;;;;;;;14.68;6.35;;;3.00;99.90;;;;;;4972853;28;20035;-83
2023/12/18 10:07:53;;;;;;;13.43;7.05;;;3.10;99.90;;;;;;4969844;28;20031;-81
2023/12/18 10:10:19;;;;;;;13.20;6.38;;;3.10;99.90;;;;;;4968563;28;20058;-81
2023/12/18 10:12:46;;;;;;;10.95;6.07;;;3.10;99.90;;;;;;4959766;28;20080;-83
2023/12/18 10:15:14;;;;;;;12.50;6.63;;;3.20;99.90;;;;;;4975125;28;20045;-82
2023/12/18 10:17:44;;;;;;;13.63;7.63;;;3.20;99.90;;;;;;4973717;28;20034;-82
2023/12/18 10:20:12;;;;;;;10.88;6.60;;;3.30;99.90;;;;;;4959118;28;20030;-82
2023/12/18 10:22:41;;;;;;;10.48;6.15;;;3.30;99.90;;;;;;4961453;28;20126;-81
2023/12/18 10:25:08;;;;;;;11.68;7.03;;;3.20;99.90;;;;;;4971968;28;20034;-82
2023/12/18 10:27:36;;;;;;;17.13;7.65;;;3.30;99.90;;;;;;4962282;28;20027;-81
2023/12/18 10:30:02;;;;;;;15.23;7.50;;;3.30;99.90;;;;;;4977728;28;20596;-82
2023/12/18 10:32:27;;;;;;;13.20;7.57;;;3.30;99.90;;;;;;4979321;28;20082;-82
2023/12/18 10:34:58;;;;;;;18.75;7.88;;;3.40;99.90;;;;;;4974886;28;20094;-81
2023/12/18 10:37:28;;;;;;;13.15;8.18;;;3.40;99.90;;;;;;4972694;28;20392;-82
2023/12/18 10:39:57;;;;;;;13.85;7.85;;;3.40;99.90;;;;;;4976829;28;20039;-81
2023/12/18 10:42:37;;;;;;;17.20;8.65;;;3.50;99.90;;;;;;4974463;28;20371;-80
2023/12/18 10:45:06;;;;;;;18.17;9.07;;;3.50;99.90;;;;;;4960208;28;20077;-82
2023/12/18 10:47:33;;;;;;;13.63;8.73;;;3.50;99.90;;;;;;4979044;28;20411;-81
2023/12/18 10:50:04;;;;;;;17.95;9.20;;;3.60;99.90;;;;;;4960974;28;20022;-81
2023/12/18 10:52:31;;;;;;;18.00;9.55;;;3.60;99.90;;;;;;4977417;28;20503;-80
2023/12/18 10:55:05;;;;;;;18.15;10.02;;;3.60;99.90;;;;;;4977778;28;20427;-81
2023/12/18 10:57:32;;;;;;;17.30;9.98;;;3.70;99.90;;;;;;4958093;28;20365;-81
2023/12/18 10:59:59;;;;;;;14.57;8.52;;;3.70;99.90;;;;;;4979006;28;20039;-81
2023/12/18 11:02:26;;;;;;;15.27;8.18;;;3.70;99.90;;;;;;4974670;28;20109;-82
2023/12/18 11:04:54;;;;;;;15.52;8.52;;;3.80;99.90;;;;;;4973942;28;20043;-80
2023/12/18 11:07:20;;;;;;;18.90;9.13;;;3.90;99.90;;;;;;4973911;28;20054;-80
2023/12/18 11:09:47;;;;;;;13.88;8.88;;;3.90;99.90;;;;;;4975100;28;20038;-80
2023/12/18 11:12:16;;;;;;;18.35;8.68;;;3.90;99.90;;;;;;4974569;28;20024;-81
2023/12/18 11:14:50;;;;;;;15.65;8.18;;;4.10;99.90;;;;;;4969736;28;20066;-80
2023/12/18 11:17:32;;;;;;;15.02;8.10;;;4.10;99.90;;;;;;4974889;28;20018;-80
2023/12/18 11:20:15;;;;;;;20.73;9.88;;;4.30;99.90;;;;;;4975308;28;20026;-81
2023/12/18 11:22:45;;;;;;;17.55;7.53;;;4.40;99.90;;;;;;4957488;28;20023;-80
2023/12/18 11:25:12;;;;;;;15.45;8.18;;;4.40;99.90;;;;;;4970842;28;20582;-81
2023/12/18 11:27:40;;;;;;;19.10;8.40;;;4.50;99.90;;;;;;4971926;28;20050;-81
2023/12/18 11:30:23;;;;;;;20.63;8.07;;;4.50;99.90;;;;;;4972407;28;20056;-80
2023/12/18 11:32:51;;;;;;;15.70;7.88;;;4.60;99.90;;;;;;4974063;28;20025;-81
2023/12/18 11:35:25;;;;;;;11.48;7.32;;;4.60;99.90;;;;;;4972087;28;20077;-81
2023/12/18 11:37:51;;;;;;;13.27;7.68;;;4.60;99.90;;;;;;4957426;28;20022;-82
2023/12/18 11:40:35;;;;;;;13.23;7.80;;;4.70;99.90;;;;;;4957081;28;20052;-81
2023/12/18 11:43:03;;;;;;;15.52;7.95;;;4.90;99.90;;;;;;4971714;28;20023;-80
2023/12/18 11:45:28;;;;;;;15.15;7.07;;;4.90;99.90;;;;;;4978161;28;20476;-81
2023/12/18 11:48:17;;;;;;;11.40;5.70;;;4.90;99.90;;;;;;4977374;28;20045;-82
2023/12/18 11:50:43;;;;;;;9.93;5.38;;;5.10;99.90;;;;;;4934016;28;20050;-80
2023/12/18 11:53:38;;;;;;;13.02;6.40;;;5.20;99.90;;;;;;4971094;28;20027;-80
2023/12/18 11:56:08;;;;;;;17.40;8.93;;;5.30;99.90;;;;;;4955237;28;20047;-81
2023/12/18 11:58:38;;;;;;;24.38;10.10;;;5.40;99.90;;;;;;4993204;28;20057;-81
2023/12/18 12:01:03;;;;;;;21.95;9.75;;;5.40;99.90;;;;;;4993245;28;20026;-81
2023/12/18 12:03:32;;;;;;;13.30;8.20;;;5.50;99.90;;;;;;4994053;28;20042;-80
2023/12/18 12:05:58;;;;;;;14.95;8.32;;;5.50;99.90;;;;;;5001767;28;20384;-80
2023/12/18 12:08:24;;;;;;;15.05;8.68;;;5.60;99.90;;;;;;4981210;28;20041;-80
2023/12/18 12:10:50;;;;;;;16.95;9.05;;;5.60;99.90;;;;;;4989329;28;20069;-80
2023/12/18 12:13:26;;;;;;;14.75;9.52;;;5.60;99.90;;;;;;4956596;28;20038;-81
2023/12/18 12:15:56;;;;;;;12.50;8.20;;;5.50;99.90;;;;;;4975743;28;20054;-81
2023/12/18 12:18:26;;;;;;;17.52;8.15;;;5.60;99.90;;;;;;4974690;28;20090;-81
2023/12/18 12:20:52;;;;;;;13.20;7.72;;;5.60;99.90;;;;;;4975727;28;20035;-81
2023/12/18 12:23:18;;;;;;;14.77;7.30;;;5.50;99.90;;;;;;4974334;28;20031;-81
2023/12/18 12:25:46;;;;;;;17.70;8.13;;;5.60;99.90;;;;;;4973072;28;20034;-81
2023/12/18 12:28:11;;;;;;;11.95;7.63;;;5.60;99.90;;;;;;4973977;28;20089;-81
2023/12/18 12:30:37;;;;;;;16.25;8.30;;;5.50;99.90;;;;;;4976263;28;20524;-81
2023/12/18 12:33:03;;;;;;;13.43;7.65;;;5.70;99.90;;;;;;4974792;28;20039;-81
2023/12/18 12:35:32;;;;;;;14.85;8.52;;;5.70;99.90;;;;;;4975136;28;20031;-81
2023/12/18 12:37:59;;;;;;;16.55;8.82;;;5.70;99.90;;;;;;4975936;28;20027;-82
2023/12/18 12:40:38;;;;;;;18.55;8.48;;;5.70;99.90;;;;;;4973233;28;20030;-82
2023/12/18 12:43:05;;;;;;;13.98;6.93;;;5.80;99.90;;;;;;4977617;28;20034;-81